Edith Kirk — 2DST9 — position and weather

sailwx.info

Track history (hours):
 
Tides and Currents Weather Stations Pressure Air Temp Water Temp Dewpoint Dewpoint Depression Visibility Wind Speed Wind Dir Waves Ship Positions

Edith Kirk

Last reported at 2016-Feb-08 09:22 UTC. Time now 2016-Feb-08 10:14 UTC.
Position N 51°23' E 002°30'.

Length 183 m; draft 11.2 m.

Type: Ship. MMSI: 235081745.

Date/timePositionNaut miles runAvg speedWind from/ knotsBaromVisibWave heightAir tempDewpointWater temp
2016-Feb-08 09:22N 51°23' E 002°30'3 3.2
2016-Feb-08 08:33N 51°22' E 002°35'7 4.5
2016-Feb-08 07:06N 51°20' E 002°25'3 4.5
2016-Feb-08 06:23N 51°19' E 002°20'4 5.0
2016-Feb-08 05:33N 51°18' E 002°14'3 2.9
2016-Feb-08 04:33N 51°18' E 002°09'3 3.3
2016-Feb-08 03:33N 51°21' E 002°10'5 5.3
2016-Feb-08 02:32N 51°20' E 002°18'5 5.2
2016-Feb-08 01:33N 51°22' E 002°26'5 4.2
2016-Feb-08 00:24N 51°23' E 002°33'2 2.9
2016-Feb-07 23:33N 51°23' E 002°37'1 1.0
2016-Feb-07 22:30N 51°24' E 002°37'9 9.0
2016-Feb-07 21:32N 51°20' E 002°24'7 7.4
2016-Feb-07 20:33N 51°18' E 002°13'10 9.9
2016-Feb-07 19:33N 51°23' E 001°59'1110.6
2016-Feb-07 18:33N 51°32' E 002°05'1211.4
2016-Feb-07 17:32N 51°41' E 002°18'18610.7
2016-Feb-07 00:11N 54°24' E 004°47'6910.3
2016-Feb-06 17:32N 55°22' E 005°51'1111.0
2016-Feb-06 16:32N 55°32' E 005°60'19610.7
2016-Feb-05 22:07N 57°48' E 010°16'813.6
2016-Feb-05 21:33N 57°48' E 010°30'1110.8
2016-Feb-05 20:34N 57°42' E 010°47'3 0.6
2016-Feb-05 15:31N 57°42' E 010°41'9 9.1
2016-Feb-05 14:33N 57°41' E 010°58'1414.0
2016-Feb-05 13:34N 57°32' E 011°17'1413.8
2016-Feb-05 12:34N 57°20' E 011°31'1414.1
2016-Feb-05 11:33N 57°07' E 011°40'1414.2
2016-Feb-05 10:33N 56°54' E 011°49'1312.8
2016-Feb-05 09:33N 56°41' E 011°49'8912.1
2016-Feb-05 02:15N 55°16' E 011°04'6 8.3
2016-Feb-05 01:33N 55°10' E 011°02'1212.4
2016-Feb-05 00:34N 54°58' E 010°58'1211.5
2016-Feb-04 23:34N 54°48' E 010°50'6 5.9
2016-Feb-04 22:32N 54°42' E 010°48'0 0.1
2016-Feb-04 21:32N 54°42' E 010°48'9 8.8
2016-Feb-04 20:33N 54°36' E 010°60'1010.4
2016-Feb-04 19:33N 54°34' E 011°17'1212.3
2016-Feb-04 18:33N 54°29' E 011°36'1212.0
2016-Feb-04 17:33N 54°26' E 011°57'1110.9
2016-Feb-04 16:33N 54°31' E 012°13'1010.2
2016-Feb-04 15:33N 54°39' E 012°25'5011.9
2016-Feb-04 11:20N 54°60' E 013°44'1013.3
2016-Feb-04 10:33N 55°03' E 014°01'1312.6
2016-Feb-04 09:33N 55°13' E 014°16'1313.0
2016-Feb-04 08:33N 55°23' E 014°30'1313.3
2016-Feb-04 07:33N 55°31' E 014°49'1313.4
2016-Feb-04 06:33N 55°37' E 015°10'1313.3
2016-Feb-04 05:33N 55°40' E 015°33'  
Track history (hours):
 
Tides and Currents Weather Stations Pressure Air Temp Water Temp Dewpoint Dewpoint Depression Visibility Wind Speed Wind Dir Waves Ship Positions

Edith Kirk

Last reported at 2016-Feb-08 09:22 UTC. Time now 2016-Feb-08 10:14 UTC.
Position N 51°23' E 002°30'.

Length 183 m; draft 11.2 m.

Type: Ship. MMSI: 235081745.

Date/timePositionNaut miles runAvg speedWind from/ knotsBaromVisibWave heightAir tempDewpointWater temp
2016-Feb-08 09:22N 51°23' E 002°30'3 3.2
2016-Feb-08 08:33N 51°22' E 002°35'7 4.5
2016-Feb-08 07:06N 51°20' E 002°25'3 4.5
2016-Feb-08 06:23N 51°19' E 002°20'4 5.0
2016-Feb-08 05:33N 51°18' E 002°14'3 2.9
2016-Feb-08 04:33N 51°18' E 002°09'3 3.3
2016-Feb-08 03:33N 51°21' E 002°10'5 5.3
2016-Feb-08 02:32N 51°20' E 002°18'5 5.2
2016-Feb-08 01:33N 51°22' E 002°26'5 4.2
2016-Feb-08 00:24N 51°23' E 002°33'2 2.9
2016-Feb-07 23:33N 51°23' E 002°37'1 1.0
2016-Feb-07 22:30N 51°24' E 002°37'9 9.0
2016-Feb-07 21:32N 51°20' E 002°24'7 7.4
2016-Feb-07 20:33N 51°18' E 002°13'10 9.9
2016-Feb-07 19:33N 51°23' E 001°59'1110.6
2016-Feb-07 18:33N 51°32' E 002°05'1211.4
2016-Feb-07 17:32N 51°41' E 002°18'18610.7
2016-Feb-07 00:11N 54°24' E 004°47'6910.3
2016-Feb-06 17:32N 55°22' E 005°51'1111.0
2016-Feb-06 16:32N 55°32' E 005°60'19610.7
2016-Feb-05 22:07N 57°48' E 010°16'813.6
2016-Feb-05 21:33N 57°48' E 010°30'1110.8
2016-Feb-05 20:34N 57°42' E 010°47'3 0.6
2016-Feb-05 15:31N 57°42' E 010°41'9 9.1
2016-Feb-05 14:33N 57°41' E 010°58'1414.0
2016-Feb-05 13:34N 57°32' E 011°17'1413.8
2016-Feb-05 12:34N 57°20' E 011°31'1414.1
2016-Feb-05 11:33N 57°07' E 011°40'1414.2
2016-Feb-05 10:33N 56°54' E 011°49'1312.8
2016-Feb-05 09:33N 56°41' E 011°49'8912.1
2016-Feb-05 02:15N 55°16' E 011°04'6 8.3
2016-Feb-05 01:33N 55°10' E 011°02'1212.4
2016-Feb-05 00:34N 54°58' E 010°58'1211.5
2016-Feb-04 23:34N 54°48' E 010°50'6 5.9
2016-Feb-04 22:32N 54°42' E 010°48'0 0.1
2016-Feb-04 21:32N 54°42' E 010°48'9 8.8
2016-Feb-04 20:33N 54°36' E 010°60'1010.4
2016-Feb-04 19:33N 54°34' E 011°17'1212.3
2016-Feb-04 18:33N 54°29' E 011°36'1212.0
2016-Feb-04 17:33N 54°26' E 011°57'1110.9
2016-Feb-04 16:33N 54°31' E 012°13'1010.2
2016-Feb-04 15:33N 54°39' E 012°25'5011.9
2016-Feb-04 11:20N 54°60' E 013°44'1013.3
2016-Feb-04 10:33N 55°03' E 014°01'1312.6
2016-Feb-04 09:33N 55°13' E 014°16'1313.0
2016-Feb-04 08:33N 55°23' E 014°30'1313.3
2016-Feb-04 07:33N 55°31' E 014°49'1313.4
2016-Feb-04 06:33N 55°37' E 015°10'1313.3
2016-Feb-04 05:33N 55°40' E 015°33'  

Dump ship's entire track history